Hasabi II — ZCPG3 — position and weather

sailwx.info

Track history (hours):
 
Tides and Currents Weather Stations Pressure Air Temp Water Temp Dewpoint Dewpoint Depression Visibility Wind Speed Wind Dir Waves Ship Positions

Hasabi II

Last reported at 2015-Jun-19 06:33 UTC. Time now 2015-Jul-01 12:45 UTC.
Position N 37°58' E 023°34'.
Warning: this ship's position is 12 days out of date.

Length 58 m; draft 3 m.

Type: Ship (hazmat cat C). MMSI: 319022000.

Date/timePositionNaut miles runAvg speedWind from/ knotsBaromVisibWave heightAir tempDewpointWater temp
2015-Jun-19 06:33N 37°58' E 023°34'0 0.0
2015-Jun-19 05:33N 37°58' E 023°34'0 0.0
2015-Jun-19 04:33N 37°58' E 023°34'0 0.0
2015-Jun-19 03:33N 37°58' E 023°34'0 0.0
2015-Jun-19 02:33N 37°58' E 023°34'0 0.0
2015-Jun-19 01:33N 37°58' E 023°34'0 0.0
2015-Jun-19 00:33N 37°58' E 023°34'0 0.0
2015-Jun-18 23:33N 37°58' E 023°34'0 0.0
2015-Jun-18 22:33N 37°58' E 023°34'0 0.0
2015-Jun-18 21:33N 37°58' E 023°34'0 0.0
2015-Jun-18 20:33N 37°58' E 023°34'0 0.0
2015-Jun-18 19:33N 37°58' E 023°34'0 0.0
2015-Jun-18 18:33N 37°58' E 023°34'0 0.0
2015-Jun-18 17:33N 37°58' E 023°34'0 0.0
2015-Jun-18 16:33N 37°58' E 023°34'0 0.0
2015-Jun-18 15:33N 37°58' E 023°34'0 0.0
2015-Jun-18 14:33N 37°58' E 023°34'0 0.0
2015-Jun-18 13:33N 37°58' E 023°34'0 0.0
2015-Jun-18 12:33N 37°58' E 023°34'0 0.0
2015-Jun-18 11:33N 37°58' E 023°34'0 0.0
2015-Jun-18 10:33N 37°58' E 023°34'0 0.0
2015-Jun-18 09:33N 37°58' E 023°34'0 0.0
2015-Jun-18 08:33N 37°58' E 023°34'0 0.0
2015-Jun-18 07:33N 37°58' E 023°34'0 0.0
2015-Jun-18 06:33N 37°58' E 023°34'3 2.9
2015-Jun-18 05:33N 37°56' E 023°37'2 1.6
2015-Jun-18 04:33N 37°56' E 023°39'0 0.0
2015-Jun-18 03:33N 37°56' E 023°39'0 0.0
2015-Jun-18 02:33N 37°56' E 023°39'0 0.0
2015-Jun-18 01:33N 37°56' E 023°39'0 0.0
2015-Jun-18 00:33N 37°56' E 023°39'0 0.0
2015-Jun-17 23:33N 37°56' E 023°39'0 0.0
2015-Jun-17 22:33N 37°56' E 023°39'5 5.0
2015-Jun-17 21:33N 37°51' E 023°39'58 9.6
2015-Jun-17 15:33N 37°24' E 024°44'1010.1
2015-Jun-17 14:33N 37°22' E 024°56'9 9.3
2015-Jun-17 13:33N 37°21' E 025°08'9 9.3
2015-Jun-17 12:33N 37°24' E 025°19'1 0.9
2015-Jun-17 11:33N 37°25' E 025°19'0 0.0
2015-Jun-17 10:33N 37°25' E 025°19'0 0.0
2015-Jun-17 09:33N 37°25' E 025°19'0 0.0
2015-Jun-17 08:33N 37°25' E 025°19'0 0.0
2015-Jun-17 07:33N 37°25' E 025°19'0 0.0
2015-Jun-17 06:33N 37°25' E 025°19'0 0.0
2015-Jun-17 05:33N 37°25' E 025°19'0 0.0
2015-Jun-17 04:33N 37°25' E 025°19'0 0.0
2015-Jun-17 03:33N 37°25' E 025°19'0 0.0
2015-Jun-17 02:33N 37°25' E 025°19'0 0.0
2015-Jun-17 01:33N 37°25' E 025°19'0 0.0
2015-Jun-17 00:33N 37°25' E 025°19'0 0.0
2015-Jun-16 23:33N 37°25' E 025°19'0 0.0
2015-Jun-16 22:33N 37°25' E 025°19'0 0.0
2015-Jun-16 21:33N 37°25' E 025°19'0 0.0
2015-Jun-16 20:33N 37°25' E 025°19'0 0.0
2015-Jun-16 19:33N 37°25' E 025°19'0 0.0
2015-Jun-16 18:33N 37°25' E 025°19'0 0.0
2015-Jun-16 17:33N 37°25' E 025°19'0 0.0
2015-Jun-16 16:33N 37°25' E 025°19'0 0.0
2015-Jun-16 15:33N 37°25' E 025°19'0 0.0
2015-Jun-16 14:33N 37°25' E 025°19'0 0.0
2015-Jun-16 13:33N 37°25' E 025°19'0 0.0
2015-Jun-16 12:33N 37°25' E 025°19'0 0.0
2015-Jun-16 11:33N 37°25' E 025°19'0 0.0
2015-Jun-16 10:33N 37°25' E 025°19'0 0.0
2015-Jun-16 09:33N 37°25' E 025°19'0 0.0
2015-Jun-16 08:33N 37°25' E 025°19'0 0.0
2015-Jun-16 07:33N 37°25' E 025°19'0 0.0
2015-Jun-16 06:33N 37°25' E 025°19'0 0.0
2015-Jun-16 05:33N 37°25' E 025°19'0 0.0
2015-Jun-16 04:33N 37°25' E 025°19'0 0.0
2015-Jun-16 03:33N 37°25' E 025°19'0 0.0
2015-Jun-16 02:33N 37°25' E 025°19'0 0.0
2015-Jun-16 01:33N 37°25' E 025°19'0 0.0
2015-Jun-16 00:33N 37°25' E 025°19'0 0.0
2015-Jun-15 23:33N 37°25' E 025°19'0 0.0
2015-Jun-15 22:33N 37°25' E 025°19'0 0.0
2015-Jun-15 21:33N 37°25' E 025°19'0 0.0
2015-Jun-15 20:33N 37°25' E 025°19'0 0.0
2015-Jun-15 19:33N 37°25' E 025°19'0 0.0
2015-Jun-15 18:33N 37°25' E 025°19'0 0.0
2015-Jun-15 17:33N 37°25' E 025°19'0 0.0
2015-Jun-15 16:33N 37°25' E 025°19'0 0.0
2015-Jun-15 15:33N 37°25' E 025°19'0 0.0
2015-Jun-15 14:34N 37°25' E 025°19'0 0.0
2015-Jun-15 13:33N 37°25' E 025°19'0 0.0
2015-Jun-15 12:33N 37°25' E 025°19'0 0.0
2015-Jun-15 11:33N 37°25' E 025°19'0 0.0
2015-Jun-15 10:33N 37°25' E 025°19'0 0.0
2015-Jun-15 09:33N 37°25' E 025°19'0 0.0
2015-Jun-15 08:33N 37°25' E 025°19'0 0.0
2015-Jun-15 07:33N 37°25' E 025°19'0 0.0
2015-Jun-15 06:33N 37°25' E 025°19'0 0.0
2015-Jun-15 05:33N 37°25' E 025°19'0 0.0
2015-Jun-15 04:33N 37°25' E 025°19'0 0.0
2015-Jun-15 03:33N 37°25' E 025°19'0 0.0
2015-Jun-15 02:33N 37°25' E 025°19'0 0.0
2015-Jun-15 01:33N 37°25' E 025°19'0 0.0
2015-Jun-15 00:34N 37°25' E 025°19'0 0.0
2015-Jun-14 23:33N 37°25' E 025°19'0 0.0
2015-Jun-14 22:33N 37°25' E 025°19'0 0.0
2015-Jun-14 21:33N 37°25' E 025°19'0 0.0
2015-Jun-14 20:33N 37°25' E 025°19'0 0.0
2015-Jun-14 19:33N 37°25' E 025°19'0 0.0
2015-Jun-14 18:33N 37°25' E 025°19'0 0.0
2015-Jun-14 17:33N 37°25' E 025°19'0 0.0
2015-Jun-14 16:33N 37°25' E 025°19'0 0.0
2015-Jun-14 15:33N 37°25' E 025°19'0 0.0
2015-Jun-14 14:33N 37°25' E 025°19'0 0.0
2015-Jun-14 13:33N 37°25' E 025°19'0 0.0
2015-Jun-14 12:33N 37°25' E 025°19'0 0.1
2015-Jun-14 11:33N 37°25' E 025°19'0 0.0
2015-Jun-14 10:33N 37°25' E 025°19'0 0.0
2015-Jun-14 09:33N 37°25' E 025°19'0 0.0
2015-Jun-14 08:33N 37°25' E 025°19'0 0.0
2015-Jun-14 07:33N 37°25' E 025°19'0 0.0
2015-Jun-14 06:33N 37°25' E 025°19'0 0.0
2015-Jun-14 05:33N 37°25' E 025°19'0 0.0
2015-Jun-14 04:33N 37°25' E 025°19'0 0.0
2015-Jun-14 03:33N 37°25' E 025°19'0 0.0
2015-Jun-14 02:33N 37°25' E 025°19'0 0.0
2015-Jun-14 01:33N 37°25' E 025°19'0 0.0
2015-Jun-14 00:33N 37°25' E 025°19'0 0.0
2015-Jun-13 23:33N 37°25' E 025°19'0 0.0
2015-Jun-13 22:33N 37°25' E 025°19'0 0.0
2015-Jun-13 21:33N 37°25' E 025°19'0 0.0
2015-Jun-13 20:33N 37°25' E 025°19'0 0.0
2015-Jun-13 19:33N 37°25' E 025°19'0 0.0
2015-Jun-13 18:33N 37°25' E 025°19'0 0.0
2015-Jun-13 17:33N 37°25' E 025°19'0 0.0
2015-Jun-13 16:33N 37°25' E 025°19'0 0.0
2015-Jun-13 15:33N 37°25' E 025°19'0 0.0
2015-Jun-13 14:33N 37°25' E 025°19'0 0.0
2015-Jun-13 13:33N 37°25' E 025°19'0 0.0
2015-Jun-13 12:33N 37°25' E 025°19'0 0.0
2015-Jun-13 11:33N 37°25' E 025°19'0 0.0
2015-Jun-13 10:33N 37°25' E 025°19'0 0.0
2015-Jun-13 09:33N 37°25' E 025°19'0 0.0
2015-Jun-13 08:33N 37°25' E 025°19'0 0.0
2015-Jun-13 07:33N 37°25' E 025°19'0 0.0
2015-Jun-13 06:33N 37°25' E 025°19'0 0.0
2015-Jun-13 05:33N 37°25' E 025°19'0 0.0
2015-Jun-13 04:33N 37°25' E 025°19'2 2.2
2015-Jun-13 03:33N 37°27' E 025°19'1 0.8
2015-Jun-13 02:33N 37°27' E 025°20'0 0.0
2015-Jun-13 01:33N 37°27' E 025°20'0 0.0
2015-Jun-13 00:33N 37°27' E 025°20'0 0.0
2015-Jun-12 23:33N 37°27' E 025°20'0 0.0
2015-Jun-12 22:33N 37°27' E 025°20'0 0.0
2015-Jun-12 21:33N 37°27' E 025°20'0 0.0
2015-Jun-12 20:33N 37°27' E 025°20'0 0.0
2015-Jun-12 19:33N 37°27' E 025°20'0 0.0
2015-Jun-12 18:33N 37°27' E 025°20'0 0.0
2015-Jun-12 17:33N 37°27' E 025°20'0 0.0
2015-Jun-12 16:33N 37°27' E 025°20'0 0.0
2015-Jun-12 15:32N 37°27' E 025°20'0 0.0
2015-Jun-12 14:33N 37°27' E 025°20'0 0.0
2015-Jun-12 13:32N 37°27' E 025°20'0 0.0
2015-Jun-12 12:33N 37°27' E 025°20'0 0.0
2015-Jun-12 11:33N 37°27' E 025°20'0 0.0
2015-Jun-12 10:33N 37°27' E 025°20'0 0.0
2015-Jun-12 09:33N 37°27' E 025°20'0 0.0
2015-Jun-12 08:33N 37°27' E 025°20'0 0.0
2015-Jun-12 07:33N 37°27' E 025°20'0 0.0
2015-Jun-12 06:33N 37°27' E 025°20'0 0.0
2015-Jun-12 05:33N 37°27' E 025°20'0 0.0
2015-Jun-12 04:33N 37°27' E 025°20'0 0.0
2015-Jun-12 03:33N 37°27' E 025°20'0 0.0
2015-Jun-12 02:34N 37°27' E 025°20'0 0.0
2015-Jun-12 01:33N 37°27' E 025°20'0 0.0
2015-Jun-12 00:33N 37°27' E 025°20'0 0.0
2015-Jun-11 23:33N 37°27' E 025°20'0 0.0
2015-Jun-11 22:33N 37°27' E 025°20'0 0.0
2015-Jun-11 21:33N 37°27' E 025°20'0 0.0
2015-Jun-11 20:33N 37°27' E 025°20'0 0.0
2015-Jun-11 19:33N 37°27' E 025°20'0 0.0
2015-Jun-11 18:33N 37°27' E 025°20'0 0.0
2015-Jun-11 17:33N 37°27' E 025°20'0 0.0
2015-Jun-11 16:33N 37°27' E 025°20'0 0.0
2015-Jun-11 15:33N 37°27' E 025°20'0 0.0
2015-Jun-11 14:33N 37°27' E 025°20'0 0.0
2015-Jun-11 13:33N 37°27' E 025°20'0 0.0
2015-Jun-11 12:33N 37°27' E 025°20'0 0.0
2015-Jun-11 11:33N 37°27' E 025°20'0 0.0
2015-Jun-11 10:33N 37°27' E 025°20'0 0.0
2015-Jun-11 09:33N 37°27' E 025°20'0 0.0
2015-Jun-11 08:33N 37°27' E 025°20'0 0.0
2015-Jun-11 07:33N 37°27' E 025°20'0 0.0
2015-Jun-11 06:33N 37°27' E 025°20'0 0.0
2015-Jun-11 05:33N 37°27' E 025°20'0 0.0
2015-Jun-11 04:33N 37°27' E 025°20'0 0.0
2015-Jun-11 03:33N 37°27' E 025°20'0 0.0
2015-Jun-11 02:33N 37°27' E 025°20'0 0.0
2015-Jun-11 01:33N 37°27' E 025°20'0 0.0
2015-Jun-11 00:33N 37°27' E 025°20'0 0.0
2015-Jun-10 23:33N 37°27' E 025°20'0 0.0
2015-Jun-10 22:33N 37°27' E 025°20'0 0.0
2015-Jun-10 21:33N 37°27' E 025°20'0 0.0
2015-Jun-10 20:33N 37°27' E 025°20'0 0.0
2015-Jun-10 19:33N 37°27' E 025°20'0 0.0
2015-Jun-10 18:33N 37°27' E 025°20'0 0.0
2015-Jun-10 17:33N 37°27' E 025°20'0 0.0
2015-Jun-10 16:33N 37°27' E 025°20'0 0.0
2015-Jun-10 15:33N 37°27' E 025°20'0 0.0
2015-Jun-10 14:33N 37°27' E 025°20'0 0.0
2015-Jun-10 13:33N 37°27' E 025°20'0 0.0
2015-Jun-10 12:33N 37°27' E 025°20'0 0.0
2015-Jun-10 11:33N 37°27' E 025°20'0 0.0
2015-Jun-10 10:33N 37°27' E 025°20'0 0.0
2015-Jun-10 09:33N 37°27' E 025°20'0 0.0
2015-Jun-10 08:33N 37°27' E 025°20'0 0.0
2015-Jun-10 07:33N 37°27' E 025°20'0 0.0
2015-Jun-10 06:33N 37°27' E 025°20'0 0.0
2015-Jun-10 05:33N 37°27' E 025°20'0 0.0
2015-Jun-10 04:33N 37°27' E 025°20'0 0.0
2015-Jun-10 03:33N 37°27' E 025°20'0 0.0
2015-Jun-10 02:33N 37°27' E 025°20'0 0.0
2015-Jun-10 01:33N 37°27' E 025°20'0 0.0
2015-Jun-10 00:33N 37°27' E 025°20'0 0.0
2015-Jun-09 23:33N 37°27' E 025°20'0 0.0
2015-Jun-09 22:33N 37°27' E 025°20'0 0.0
2015-Jun-09 21:33N 37°27' E 025°20'0 0.0
2015-Jun-09 20:33N 37°27' E 025°20'0 0.0
2015-Jun-09 19:33N 37°27' E 025°20'0 0.0
2015-Jun-09 18:34N 37°27' E 025°20'0 0.0
2015-Jun-09 17:33N 37°27' E 025°20'0 0.0
2015-Jun-09 16:33N 37°27' E 025°20'0 0.0
2015-Jun-09 15:33N 37°27' E 025°20'0 0.0
2015-Jun-09 14:33N 37°27' E 025°20'0 0.0
2015-Jun-09 13:33N 37°27' E 025°20'0 0.0
2015-Jun-09 12:33N 37°27' E 025°20'0 0.0
2015-Jun-09 11:33N 37°27' E 025°20'0 0.0
2015-Jun-09 10:33N 37°27' E 025°20'0 0.0
2015-Jun-09 09:32N 37°27' E 025°20'0 0.0
2015-Jun-09 08:33N 37°27' E 025°20'0 0.0
2015-Jun-09 07:33N 37°27' E 025°20'  
Track history (hours):
 
Tides and Currents Weather Stations Pressure Air Temp Water Temp Dewpoint Dewpoint Depression Visibility Wind Speed Wind Dir Waves Ship Positions

Hasabi II

Last reported at 2015-Jun-19 06:33 UTC. Time now 2015-Jul-01 12:45 UTC.
Position N 37°58' E 023°34'.
Warning: this ship's position is 12 days out of date.

Length 58 m; draft 3 m.

Type: Ship (hazmat cat C). MMSI: 319022000.

Date/timePositionNaut miles runAvg speedWind from/ knotsBaromVisibWave heightAir tempDewpointWater temp
2015-Jun-19 06:33N 37°58' E 023°34'0 0.0
2015-Jun-19 05:33N 37°58' E 023°34'0 0.0
2015-Jun-19 04:33N 37°58' E 023°34'0 0.0
2015-Jun-19 03:33N 37°58' E 023°34'0 0.0
2015-Jun-19 02:33N 37°58' E 023°34'0 0.0
2015-Jun-19 01:33N 37°58' E 023°34'0 0.0
2015-Jun-19 00:33N 37°58' E 023°34'0 0.0
2015-Jun-18 23:33N 37°58' E 023°34'0 0.0
2015-Jun-18 22:33N 37°58' E 023°34'0 0.0
2015-Jun-18 21:33N 37°58' E 023°34'0 0.0
2015-Jun-18 20:33N 37°58' E 023°34'0 0.0
2015-Jun-18 19:33N 37°58' E 023°34'0 0.0
2015-Jun-18 18:33N 37°58' E 023°34'0 0.0
2015-Jun-18 17:33N 37°58' E 023°34'0 0.0
2015-Jun-18 16:33N 37°58' E 023°34'0 0.0
2015-Jun-18 15:33N 37°58' E 023°34'0 0.0
2015-Jun-18 14:33N 37°58' E 023°34'0 0.0
2015-Jun-18 13:33N 37°58' E 023°34'0 0.0
2015-Jun-18 12:33N 37°58' E 023°34'0 0.0
2015-Jun-18 11:33N 37°58' E 023°34'0 0.0
2015-Jun-18 10:33N 37°58' E 023°34'0 0.0
2015-Jun-18 09:33N 37°58' E 023°34'0 0.0
2015-Jun-18 08:33N 37°58' E 023°34'0 0.0
2015-Jun-18 07:33N 37°58' E 023°34'0 0.0
2015-Jun-18 06:33N 37°58' E 023°34'3 2.9
2015-Jun-18 05:33N 37°56' E 023°37'2 1.6
2015-Jun-18 04:33N 37°56' E 023°39'0 0.0
2015-Jun-18 03:33N 37°56' E 023°39'0 0.0
2015-Jun-18 02:33N 37°56' E 023°39'0 0.0
2015-Jun-18 01:33N 37°56' E 023°39'0 0.0
2015-Jun-18 00:33N 37°56' E 023°39'0 0.0
2015-Jun-17 23:33N 37°56' E 023°39'0 0.0
2015-Jun-17 22:33N 37°56' E 023°39'5 5.0
2015-Jun-17 21:33N 37°51' E 023°39'58 9.6
2015-Jun-17 15:33N 37°24' E 024°44'1010.1
2015-Jun-17 14:33N 37°22' E 024°56'9 9.3
2015-Jun-17 13:33N 37°21' E 025°08'9 9.3
2015-Jun-17 12:33N 37°24' E 025°19'1 0.9
2015-Jun-17 11:33N 37°25' E 025°19'0 0.0
2015-Jun-17 10:33N 37°25' E 025°19'0 0.0
2015-Jun-17 09:33N 37°25' E 025°19'0 0.0
2015-Jun-17 08:33N 37°25' E 025°19'0 0.0
2015-Jun-17 07:33N 37°25' E 025°19'0 0.0
2015-Jun-17 06:33N 37°25' E 025°19'0 0.0
2015-Jun-17 05:33N 37°25' E 025°19'0 0.0
2015-Jun-17 04:33N 37°25' E 025°19'0 0.0
2015-Jun-17 03:33N 37°25' E 025°19'0 0.0
2015-Jun-17 02:33N 37°25' E 025°19'0 0.0
2015-Jun-17 01:33N 37°25' E 025°19'0 0.0
2015-Jun-17 00:33N 37°25' E 025°19'0 0.0
2015-Jun-16 23:33N 37°25' E 025°19'0 0.0
2015-Jun-16 22:33N 37°25' E 025°19'0 0.0
2015-Jun-16 21:33N 37°25' E 025°19'0 0.0
2015-Jun-16 20:33N 37°25' E 025°19'0 0.0
2015-Jun-16 19:33N 37°25' E 025°19'0 0.0
2015-Jun-16 18:33N 37°25' E 025°19'0 0.0
2015-Jun-16 17:33N 37°25' E 025°19'0 0.0
2015-Jun-16 16:33N 37°25' E 025°19'0 0.0
2015-Jun-16 15:33N 37°25' E 025°19'0 0.0
2015-Jun-16 14:33N 37°25' E 025°19'0 0.0
2015-Jun-16 13:33N 37°25' E 025°19'0 0.0
2015-Jun-16 12:33N 37°25' E 025°19'0 0.0
2015-Jun-16 11:33N 37°25' E 025°19'0 0.0
2015-Jun-16 10:33N 37°25' E 025°19'0 0.0
2015-Jun-16 09:33N 37°25' E 025°19'0 0.0
2015-Jun-16 08:33N 37°25' E 025°19'0 0.0
2015-Jun-16 07:33N 37°25' E 025°19'0 0.0
2015-Jun-16 06:33N 37°25' E 025°19'0 0.0
2015-Jun-16 05:33N 37°25' E 025°19'0 0.0
2015-Jun-16 04:33N 37°25' E 025°19'0 0.0
2015-Jun-16 03:33N 37°25' E 025°19'0 0.0
2015-Jun-16 02:33N 37°25' E 025°19'0 0.0
2015-Jun-16 01:33N 37°25' E 025°19'0 0.0
2015-Jun-16 00:33N 37°25' E 025°19'0 0.0
2015-Jun-15 23:33N 37°25' E 025°19'0 0.0
2015-Jun-15 22:33N 37°25' E 025°19'0 0.0
2015-Jun-15 21:33N 37°25' E 025°19'0 0.0
2015-Jun-15 20:33N 37°25' E 025°19'0 0.0
2015-Jun-15 19:33N 37°25' E 025°19'0 0.0
2015-Jun-15 18:33N 37°25' E 025°19'0 0.0
2015-Jun-15 17:33N 37°25' E 025°19'0 0.0
2015-Jun-15 16:33N 37°25' E 025°19'0 0.0
2015-Jun-15 15:33N 37°25' E 025°19'0 0.0
2015-Jun-15 14:34N 37°25' E 025°19'0 0.0
2015-Jun-15 13:33N 37°25' E 025°19'0 0.0
2015-Jun-15 12:33N 37°25' E 025°19'0 0.0
2015-Jun-15 11:33N 37°25' E 025°19'0 0.0
2015-Jun-15 10:33N 37°25' E 025°19'0 0.0
2015-Jun-15 09:33N 37°25' E 025°19'0 0.0
2015-Jun-15 08:33N 37°25' E 025°19'0 0.0
2015-Jun-15 07:33N 37°25' E 025°19'0 0.0
2015-Jun-15 06:33N 37°25' E 025°19'0 0.0
2015-Jun-15 05:33N 37°25' E 025°19'0 0.0
2015-Jun-15 04:33N 37°25' E 025°19'0 0.0
2015-Jun-15 03:33N 37°25' E 025°19'0 0.0
2015-Jun-15 02:33N 37°25' E 025°19'0 0.0
2015-Jun-15 01:33N 37°25' E 025°19'0 0.0
2015-Jun-15 00:34N 37°25' E 025°19'0 0.0
2015-Jun-14 23:33N 37°25' E 025°19'0 0.0
2015-Jun-14 22:33N 37°25' E 025°19'0 0.0
2015-Jun-14 21:33N 37°25' E 025°19'0 0.0
2015-Jun-14 20:33N 37°25' E 025°19'0 0.0
2015-Jun-14 19:33N 37°25' E 025°19'0 0.0
2015-Jun-14 18:33N 37°25' E 025°19'0 0.0
2015-Jun-14 17:33N 37°25' E 025°19'0 0.0
2015-Jun-14 16:33N 37°25' E 025°19'0 0.0
2015-Jun-14 15:33N 37°25' E 025°19'0 0.0
2015-Jun-14 14:33N 37°25' E 025°19'0 0.0
2015-Jun-14 13:33N 37°25' E 025°19'0 0.0
2015-Jun-14 12:33N 37°25' E 025°19'0 0.1
2015-Jun-14 11:33N 37°25' E 025°19'0 0.0
2015-Jun-14 10:33N 37°25' E 025°19'0 0.0
2015-Jun-14 09:33N 37°25' E 025°19'0 0.0
2015-Jun-14 08:33N 37°25' E 025°19'0 0.0
2015-Jun-14 07:33N 37°25' E 025°19'0 0.0
2015-Jun-14 06:33N 37°25' E 025°19'0 0.0
2015-Jun-14 05:33N 37°25' E 025°19'0 0.0
2015-Jun-14 04:33N 37°25' E 025°19'0 0.0
2015-Jun-14 03:33N 37°25' E 025°19'0 0.0
2015-Jun-14 02:33N 37°25' E 025°19'0 0.0
2015-Jun-14 01:33N 37°25' E 025°19'0 0.0
2015-Jun-14 00:33N 37°25' E 025°19'0 0.0
2015-Jun-13 23:33N 37°25' E 025°19'0 0.0
2015-Jun-13 22:33N 37°25' E 025°19'0 0.0
2015-Jun-13 21:33N 37°25' E 025°19'0 0.0
2015-Jun-13 20:33N 37°25' E 025°19'0 0.0
2015-Jun-13 19:33N 37°25' E 025°19'0 0.0
2015-Jun-13 18:33N 37°25' E 025°19'0 0.0
2015-Jun-13 17:33N 37°25' E 025°19'0 0.0
2015-Jun-13 16:33N 37°25' E 025°19'0 0.0
2015-Jun-13 15:33N 37°25' E 025°19'0 0.0
2015-Jun-13 14:33N 37°25' E 025°19'0 0.0
2015-Jun-13 13:33N 37°25' E 025°19'0 0.0
2015-Jun-13 12:33N 37°25' E 025°19'0 0.0
2015-Jun-13 11:33N 37°25' E 025°19'0 0.0
2015-Jun-13 10:33N 37°25' E 025°19'0 0.0
2015-Jun-13 09:33N 37°25' E 025°19'0 0.0
2015-Jun-13 08:33N 37°25' E 025°19'0 0.0
2015-Jun-13 07:33N 37°25' E 025°19'0 0.0
2015-Jun-13 06:33N 37°25' E 025°19'0 0.0
2015-Jun-13 05:33N 37°25' E 025°19'0 0.0
2015-Jun-13 04:33N 37°25' E 025°19'2 2.2
2015-Jun-13 03:33N 37°27' E 025°19'1 0.8
2015-Jun-13 02:33N 37°27' E 025°20'0 0.0
2015-Jun-13 01:33N 37°27' E 025°20'0 0.0
2015-Jun-13 00:33N 37°27' E 025°20'0 0.0
2015-Jun-12 23:33N 37°27' E 025°20'0 0.0
2015-Jun-12 22:33N 37°27' E 025°20'0 0.0
2015-Jun-12 21:33N 37°27' E 025°20'0 0.0
2015-Jun-12 20:33N 37°27' E 025°20'0 0.0
2015-Jun-12 19:33N 37°27' E 025°20'0 0.0
2015-Jun-12 18:33N 37°27' E 025°20'0 0.0
2015-Jun-12 17:33N 37°27' E 025°20'0 0.0
2015-Jun-12 16:33N 37°27' E 025°20'0 0.0
2015-Jun-12 15:32N 37°27' E 025°20'0 0.0
2015-Jun-12 14:33N 37°27' E 025°20'0 0.0
2015-Jun-12 13:32N 37°27' E 025°20'0 0.0
2015-Jun-12 12:33N 37°27' E 025°20'0 0.0
2015-Jun-12 11:33N 37°27' E 025°20'0 0.0
2015-Jun-12 10:33N 37°27' E 025°20'0 0.0
2015-Jun-12 09:33N 37°27' E 025°20'0 0.0
2015-Jun-12 08:33N 37°27' E 025°20'0 0.0
2015-Jun-12 07:33N 37°27' E 025°20'0 0.0
2015-Jun-12 06:33N 37°27' E 025°20'0 0.0
2015-Jun-12 05:33N 37°27' E 025°20'0 0.0
2015-Jun-12 04:33N 37°27' E 025°20'0 0.0
2015-Jun-12 03:33N 37°27' E 025°20'0 0.0
2015-Jun-12 02:34N 37°27' E 025°20'0 0.0
2015-Jun-12 01:33N 37°27' E 025°20'0 0.0
2015-Jun-12 00:33N 37°27' E 025°20'0 0.0
2015-Jun-11 23:33N 37°27' E 025°20'0 0.0
2015-Jun-11 22:33N 37°27' E 025°20'0 0.0
2015-Jun-11 21:33N 37°27' E 025°20'0 0.0
2015-Jun-11 20:33N 37°27' E 025°20'0 0.0
2015-Jun-11 19:33N 37°27' E 025°20'0 0.0
2015-Jun-11 18:33N 37°27' E 025°20'0 0.0
2015-Jun-11 17:33N 37°27' E 025°20'0 0.0
2015-Jun-11 16:33N 37°27' E 025°20'0 0.0
2015-Jun-11 15:33N 37°27' E 025°20'0 0.0
2015-Jun-11 14:33N 37°27' E 025°20'0 0.0
2015-Jun-11 13:33N 37°27' E 025°20'0 0.0
2015-Jun-11 12:33N 37°27' E 025°20'0 0.0
2015-Jun-11 11:33N 37°27' E 025°20'0 0.0
2015-Jun-11 10:33N 37°27' E 025°20'0 0.0
2015-Jun-11 09:33N 37°27' E 025°20'0 0.0
2015-Jun-11 08:33N 37°27' E 025°20'0 0.0
2015-Jun-11 07:33N 37°27' E 025°20'0 0.0
2015-Jun-11 06:33N 37°27' E 025°20'0 0.0
2015-Jun-11 05:33N 37°27' E 025°20'0 0.0
2015-Jun-11 04:33N 37°27' E 025°20'0 0.0
2015-Jun-11 03:33N 37°27' E 025°20'0 0.0
2015-Jun-11 02:33N 37°27' E 025°20'0 0.0
2015-Jun-11 01:33N 37°27' E 025°20'0 0.0
2015-Jun-11 00:33N 37°27' E 025°20'0 0.0
2015-Jun-10 23:33N 37°27' E 025°20'0 0.0
2015-Jun-10 22:33N 37°27' E 025°20'0 0.0
2015-Jun-10 21:33N 37°27' E 025°20'0 0.0
2015-Jun-10 20:33N 37°27' E 025°20'0 0.0
2015-Jun-10 19:33N 37°27' E 025°20'0 0.0
2015-Jun-10 18:33N 37°27' E 025°20'0 0.0
2015-Jun-10 17:33N 37°27' E 025°20'0 0.0
2015-Jun-10 16:33N 37°27' E 025°20'0 0.0
2015-Jun-10 15:33N 37°27' E 025°20'0 0.0
2015-Jun-10 14:33N 37°27' E 025°20'0 0.0
2015-Jun-10 13:33N 37°27' E 025°20'0 0.0
2015-Jun-10 12:33N 37°27' E 025°20'0 0.0
2015-Jun-10 11:33N 37°27' E 025°20'0 0.0
2015-Jun-10 10:33N 37°27' E 025°20'0 0.0
2015-Jun-10 09:33N 37°27' E 025°20'0 0.0
2015-Jun-10 08:33N 37°27' E 025°20'0 0.0
2015-Jun-10 07:33N 37°27' E 025°20'0 0.0
2015-Jun-10 06:33N 37°27' E 025°20'0 0.0
2015-Jun-10 05:33N 37°27' E 025°20'0 0.0
2015-Jun-10 04:33N 37°27' E 025°20'0 0.0
2015-Jun-10 03:33N 37°27' E 025°20'0 0.0
2015-Jun-10 02:33N 37°27' E 025°20'0 0.0
2015-Jun-10 01:33N 37°27' E 025°20'0 0.0
2015-Jun-10 00:33N 37°27' E 025°20'0 0.0
2015-Jun-09 23:33N 37°27' E 025°20'0 0.0
2015-Jun-09 22:33N 37°27' E 025°20'0 0.0
2015-Jun-09 21:33N 37°27' E 025°20'0 0.0
2015-Jun-09 20:33N 37°27' E 025°20'0 0.0
2015-Jun-09 19:33N 37°27' E 025°20'0 0.0
2015-Jun-09 18:34N 37°27' E 025°20'0 0.0
2015-Jun-09 17:33N 37°27' E 025°20'0 0.0
2015-Jun-09 16:33N 37°27' E 025°20'0 0.0
2015-Jun-09 15:33N 37°27' E 025°20'0 0.0
2015-Jun-09 14:33N 37°27' E 025°20'0 0.0
2015-Jun-09 13:33N 37°27' E 025°20'0 0.0
2015-Jun-09 12:33N 37°27' E 025°20'0 0.0
2015-Jun-09 11:33N 37°27' E 025°20'0 0.0
2015-Jun-09 10:33N 37°27' E 025°20'0 0.0
2015-Jun-09 09:32N 37°27' E 025°20'0 0.0
2015-Jun-09 08:33N 37°27' E 025°20'0 0.0
2015-Jun-09 07:33N 37°27' E 025°20'  

Dump ship's entire track history